Time;durP1;ratioP1;P1;durP2;ratioP2;P2;SDS_P1;SDS_P2;PMS_P1;PMS_P2;Temp;Humidity;BMP_temperature;BMP_pressure;BME280_temperature;BME280_humidity;BME280_pressure;Samples;Min_cycle;Max_cycle;Signal;HPM_P1;HPM_P2
2021/08/06 00:00:05;;;;;;;1.80;1.70;;;15.30;99.90;;;;;;492354;241;28800;-69
2021/08/06 00:02:06;;;;;;;1.73;1.63;;;15.30;99.90;;;;;;492370;241;28782;-70
2021/08/06 00:04:07;;;;;;;1.80;1.70;;;15.30;99.90;;;;;;492338;238;28901;-70
2021/08/06 00:06:09;;;;;;;1.80;1.70;;;15.30;99.90;;;;;;492338;241;28765;-70
2021/08/06 00:08:10;;;;;;;1.80;1.70;;;15.30;99.90;;;;;;492329;241;29263;-70
2021/08/06 00:10:11;;;;;;;2.30;2.10;;;15.20;99.90;;;;;;492322;241;29373;-70
2021/08/06 00:12:12;;;;;;;2.10;1.97;;;15.20;99.90;;;;;;492352;241;29331;-70
2021/08/06 00:14:14;;;;;;;2.00;1.80;;;15.20;99.90;;;;;;492334;241;29304;-70
2021/08/06 00:16:17;;;;;;;1.80;1.70;;;15.10;99.90;;;;;;492318;241;28745;-70
2021/08/06 00:18:16;;;;;;;1.90;1.80;;;15.10;99.90;;;;;;492149;241;28806;-69
2021/08/06 00:20:17;;;;;;;2.00;1.90;;;15.10;99.90;;;;;;492332;241;28798;-70
2021/08/06 00:22:19;;;;;;;2.40;1.83;;;15.10;99.90;;;;;;492322;241;28884;-70
2021/08/06 00:24:20;;;;;;;2.00;1.87;;;15.10;99.90;;;;;;492332;241;28832;-71
2021/08/06 00:26:21;;;;;;;1.87;1.77;;;15.00;99.90;;;;;;492338;241;28916;-71
2021/08/06 00:28:22;;;;;;;2.10;1.90;;;15.00;99.90;;;;;;492335;241;28818;-70
2021/08/06 00:30:24;;;;;;;2.17;2.07;;;15.10;99.90;;;;;;492306;241;28907;-71
2021/08/06 00:32:25;;;;;;;2.00;1.90;;;15.00;99.90;;;;;;492297;240;29289;-69
2021/08/06 00:34:26;;;;;;;2.20;2.10;;;15.00;99.90;;;;;;492304;241;29307;-70
2021/08/06 00:36:27;;;;;;;1.87;1.77;;;15.00;99.90;;;;;;492316;241;29220;-69
2021/08/06 00:38:29;;;;;;;1.80;1.70;;;15.00;99.90;;;;;;492331;241;29284;-72
2021/08/06 00:40:30;;;;;;;2.20;1.50;;;15.00;99.90;;;;;;492317;241;28522;-72
2021/08/06 00:42:31;;;;;;;1.80;1.70;;;15.00;99.90;;;;;;492305;241;28830;-72
2021/08/06 00:44:33;;;;;;;1.93;1.83;;;15.00;99.90;;;;;;492323;241;28530;-69
2021/08/06 00:46:34;;;;;;;1.90;1.80;;;15.00;99.90;;;;;;492308;240;28852;-69
2021/08/06 00:48:35;;;;;;;1.70;1.60;;;15.00;99.90;;;;;;492225;241;28913;-69
2021/08/06 00:50:36;;;;;;;2.10;2.00;;;14.90;99.90;;;;;;492329;241;28829;-69
2021/08/06 00:52:38;;;;;;;2.10;2.00;;;14.90;99.90;;;;;;492318;241;28793;-70
2021/08/06 00:54:39;;;;;;;2.30;2.10;;;14.90;99.90;;;;;;492309;241;28836;-70
2021/08/06 00:56:40;;;;;;;2.00;1.90;;;14.80;99.90;;;;;;492311;241;28836;-71
2021/08/06 00:58:41;;;;;;;1.97;1.87;;;14.90;99.90;;;;;;492318;241;29400;-70
2021/08/06 01:00:43;;;;;;;1.57;1.47;;;14.90;99.90;;;;;;492302;240;29017;-72
2021/08/06 01:02:44;;;;;;;1.97;1.87;;;14.90;99.90;;;;;;492329;241;28918;-70
2021/08/06 01:04:45;;;;;;;1.83;1.73;;;14.90;99.90;;;;;;492319;241;28705;-70
2021/08/06 01:06:46;;;;;;;1.80;1.70;;;14.90;99.90;;;;;;492337;241;28770;-72
2021/08/06 01:08:48;;;;;;;2.03;1.93;;;14.90;99.90;;;;;;492316;241;28915;-71
2021/08/06 01:10:49;;;;;;;2.40;2.20;;;14.90;99.90;;;;;;492317;241;28420;-70
2021/08/06 01:12:50;;;;;;;1.70;1.60;;;14.90;99.90;;;;;;492292;241;28848;-70
2021/08/06 01:14:51;;;;;;;2.10;2.00;;;15.00;99.90;;;;;;492313;241;28435;-70
2021/08/06 01:16:53;;;;;;;1.70;1.60;;;15.00;99.90;;;;;;492316;241;28785;-70
2021/08/06 01:18:54;;;;;;;1.60;1.50;;;15.10;99.90;;;;;;492341;241;28808;-70
2021/08/06 01:20:55;;;;;;;2.37;2.17;;;15.20;99.90;;;;;;492319;241;29287;-70
2021/08/06 01:22:56;;;;;;;2.13;2.03;;;15.20;99.90;;;;;;492346;241;28781;-70
2021/08/06 01:24:58;;;;;;;2.10;1.87;;;15.30;99.90;;;;;;492341;241;28797;-70
2021/08/06 01:26:59;;;;;;;1.80;1.70;;;15.30;99.90;;;;;;492328;241;29228;-70
2021/08/06 01:29:00;;;;;;;2.00;1.90;;;15.30;99.90;;;;;;492310;241;29320;-71
2021/08/06 01:31:01;;;;;;;2.10;1.90;;;15.40;99.90;;;;;;492345;241;29389;-70
2021/08/06 01:33:03;;;;;;;1.70;1.60;;;15.40;99.90;;;;;;492336;241;28969;-70
2021/08/06 01:35:04;;;;;;;1.93;1.83;;;15.40;99.90;;;;;;492338;241;28817;-71
2021/08/06 01:37:05;;;;;;;1.87;1.77;;;15.40;99.90;;;;;;492329;241;28765;-70
2021/08/06 01:39:06;;;;;;;4.27;2.00;;;15.50;99.90;;;;;;492307;241;28872;-71
2021/08/06 01:41:08;;;;;;;2.37;2.17;;;15.50;99.90;;;;;;492314;241;29190;-70
2021/08/06 01:43:09;;;;;;;2.10;1.90;;;15.50;99.90;;;;;;492324;241;28899;-70
2021/08/06 01:45:10;;;;;;;1.97;1.87;;;15.50;99.90;;;;;;492307;241;28919;-69
2021/08/06 01:47:11;;;;;;;1.80;1.70;;;15.50;99.90;;;;;;492274;241;28825;-70
2021/08/06 01:49:13;;;;;;;1.70;1.60;;;15.50;99.90;;;;;;492240;241;28885;-70
2021/08/06 01:51:14;;;;;;;2.10;2.00;;;15.50;99.90;;;;;;492294;241;29387;-71
2021/08/06 01:53:15;;;;;;;1.83;1.73;;;15.60;99.90;;;;;;492321;241;29352;-71
2021/08/06 01:55:16;;;;;;;2.60;2.30;;;15.60;99.90;;;;;;492301;241;29283;-72
2021/08/06 01:57:18;;;;;;;1.87;1.77;;;15.60;99.90;;;;;;492320;241;29247;-72
2021/08/06 01:59:19;;;;;;;1.87;1.77;;;15.60;99.90;;;;;;492307;241;28889;-72
2021/08/06 02:01:20;;;;;;;1.90;1.67;;;15.60;99.90;;;;;;492285;241;28785;-72
2021/08/06 02:03:22;;;;;;;1.80;1.70;;;15.50;99.90;;;;;;492313;241;28824;-72
2021/08/06 02:05:23;;;;;;;1.90;1.80;;;15.50;99.90;;;;;;492302;241;28824;-69
2021/08/06 02:07:24;;;;;;;2.60;1.70;;;15.50;99.90;;;;;;492319;241;28789;-69
2021/08/06 02:09:25;;;;;;;1.77;1.67;;;15.50;99.90;;;;;;492308;237;28915;-71
2021/08/06 02:11:27;;;;;;;2.10;2.00;;;15.50;99.90;;;;;;492300;241;28708;-69
2021/08/06 02:13:28;;;;;;;2.00;1.83;;;15.50;99.90;;;;;;492264;241;28676;-72
2021/08/06 02:15:29;;;;;;;2.13;2.00;;;15.50;99.90;;;;;;492298;241;29268;-72
2021/08/06 02:17:30;;;;;;;2.10;2.00;;;15.60;99.90;;;;;;492306;241;29342;-72
2021/08/06 02:19:31;;;;;;;2.00;1.90;;;15.60;99.90;;;;;;492304;241;29344;-71
2021/08/06 02:21:33;;;;;;;2.43;2.10;;;15.60;99.90;;;;;;492308;238;28844;-70
2021/08/06 02:23:34;;;;;;;2.63;2.00;;;15.60;99.90;;;;;;492267;241;28781;-70
2021/08/06 02:25:35;;;;;;;1.90;1.80;;;15.70;99.90;;;;;;492309;241;28805;-72
2021/08/06 02:27:36;;;;;;;2.43;2.03;;;15.70;99.90;;;;;;492311;241;28784;-72
2021/08/06 02:29:38;;;;;;;2.33;2.13;;;15.60;99.90;;;;;;492341;241;28892;-69
2021/08/06 02:31:39;;;;;;;2.10;2.00;;;15.60;99.90;;;;;;492355;241;29150;-70
2021/08/06 02:33:40;;;;;;;2.07;1.97;;;15.60;99.90;;;;;;492340;241;28791;-72
2021/08/06 02:35:41;;;;;;;2.50;2.30;;;15.60;99.90;;;;;;492358;241;28827;-72
2021/08/06 02:37:45;;;;;;;1.90;1.80;;;15.60;99.90;;;;;;492361;241;29314;-71
2021/08/06 02:39:44;;;;;;;1.90;1.80;;;15.50;99.90;;;;;;492196;241;29257;-72
2021/08/06 02:41:45;;;;;;;2.30;2.20;;;15.60;99.90;;;;;;492347;241;29266;-72
2021/08/06 02:43:46;;;;;;;2.40;2.20;;;15.50;99.90;;;;;;492355;241;29214;-72
2021/08/06 02:45:48;;;;;;;2.20;2.03;;;15.60;99.90;;;;;;492352;241;28879;-72
2021/08/06 02:47:49;;;;;;;2.00;1.90;;;15.50;99.90;;;;;;492381;241;28896;-70
2021/08/06 02:49:50;;;;;;;2.57;2.20;;;15.50;99.90;;;;;;492363;241;28793;-69
2021/08/06 02:51:51;;;;;;;2.13;2.03;;;15.50;99.90;;;;;;492391;240;28903;-70
2021/08/06 02:53:53;;;;;;;2.07;1.97;;;15.50;99.90;;;;;;492378;241;28808;-70
2021/08/06 02:55:54;;;;;;;2.00;1.90;;;15.50;99.90;;;;;;492390;241;28813;-69
2021/08/06 02:57:55;;;;;;;2.00;1.90;;;15.50;99.90;;;;;;492376;241;28479;-70
2021/08/06 02:59:56;;;;;;;2.87;2.60;;;15.40;99.90;;;;;;492356;241;28798;-70
2021/08/06 03:01:58;;;;;;;2.53;2.33;;;15.40;99.90;;;;;;492393;241;29314;-70
2021/08/06 03:03:59;;;;;;;2.10;2.00;;;15.40;99.90;;;;;;492366;241;29446;-70
2021/08/06 03:06:00;;;;;;;2.47;2.30;;;13.80;99.90;;;;;;492363;241;29284;-72
2021/08/06 03:08:02;;;;;;;2.27;2.17;;;15.40;99.90;;;;;;492368;241;29327;-71
2021/08/06 03:10:04;;;;;;;1.90;1.80;;;;;;;;;;492388;241;27472;-72
2021/08/06 03:12:06;;;;;;;2.37;2.00;;;15.40;99.90;;;;;;492341;241;27550;-72
2021/08/06 03:14:07;;;;;;;2.10;1.90;;;15.50;99.90;;;;;;492329;241;28795;-72
2021/08/06 03:16:09;;;;;;;2.50;2.30;;;;;;;;;;492374;241;28498;-72
2021/08/06 03:18:13;;;;;;;2.20;2.00;;;15.40;99.90;;;;;;492361;241;27488;-72
2021/08/06 03:20:11;;;;;;;2.03;1.93;;;15.50;99.90;;;;;;491995;241;28940;-72
2021/08/06 03:22:13;;;;;;;1.90;1.80;;;15.50;99.90;;;;;;492354;241;28836;-69
2021/08/06 03:24:14;;;;;;;2.37;2.17;;;15.50;99.90;;;;;;492375;241;28820;-69
2021/08/06 03:26:15;;;;;;;2.30;2.10;;;15.50;99.90;;;;;;492322;241;29376;-69
2021/08/06 03:28:16;;;;;;;2.07;1.70;;;15.50;99.90;;;;;;492362;240;29282;-70
2021/08/06 03:30:18;;;;;;;2.27;2.17;;;15.50;99.90;;;;;;492343;241;29220;-72
2021/08/06 03:32:19;;;;;;;2.23;2.13;;;15.40;99.90;;;;;;492359;241;28818;-71
2021/08/06 03:34:20;;;;;;;2.33;2.13;;;15.50;99.90;;;;;;492349;241;28879;-69
2021/08/06 03:36:21;;;;;;;2.30;2.17;;;15.50;99.90;;;;;;492330;241;29261;-70
2021/08/06 03:38:23;;;;;;;2.40;2.30;;;15.50;99.90;;;;;;492361;241;28816;-69
2021/08/06 03:40:26;;;;;;;2.30;2.10;;;;;;;;;;492331;241;28763;-69
2021/08/06 03:42:28;;;;;;;2.37;2.20;;;;;;;;;;492290;241;26755;-71
2021/08/06 03:44:31;;;;;;;2.27;2.10;;;;;;;;;;492296;241;27380;-70
2021/08/06 03:46:34;;;;;;;2.23;2.03;;;;;;;;;;492308;241;27467;-70
2021/08/06 03:48:36;;;;;;;5.50;2.10;;;;;;;;;;492327;241;26383;-72
2021/08/06 03:50:38;;;;;;;4.00;2.33;;;;;;;;;;492297;237;27566;-70
2021/08/06 03:52:42;;;;;;;3.03;2.00;;;;;;;;;;492308;241;27482;-72
2021/08/06 03:54:44;;;;;;;2.27;2.10;;;;;;;;;;492306;241;26413;-72
2021/08/06 03:56:45;;;;;;;2.20;2.10;;;15.50;99.90;;;;;;492312;241;26883;-72
2021/08/06 03:58:48;;;;;;;2.23;2.13;;;;;;;;;;492328;241;29240;-72
2021/08/06 04:00:51;;;;;;;1.70;1.60;;;;;;;;;;492345;241;27926;-70
2021/08/06 04:02:53;;;;;;;2.13;2.03;;;;;;;;;;492347;241;26400;-70
2021/08/06 04:04:55;;;;;;;2.83;2.00;;;;;;;;;;492327;241;27601;-70
2021/08/06 04:06:57;;;;;;;2.23;2.03;;;15.50;99.90;;;;;;492338;241;27559;-72
2021/08/06 04:09:00;;;;;;;2.73;2.13;;;;;;;;;;492331;241;28002;-70
2021/08/06 04:11:01;;;;;;;1.90;1.80;;;15.50;99.90;;;;;;492338;241;26218;-70
2021/08/06 04:13:02;;;;;;;1.73;1.63;;;15.60;99.90;;;;;;492298;240;28788;-70
2021/08/06 04:15:04;;;;;;;1.93;1.83;;;15.50;99.90;;;;;;492300;240;28812;-70
2021/08/06 04:17:05;;;;;;;1.73;1.63;;;15.50;99.90;;;;;;492340;241;28870;-70
2021/08/06 04:19:06;;;;;;;2.50;2.00;;;15.50;99.90;;;;;;492343;241;28813;-70
2021/08/06 04:21:07;;;;;;;1.73;1.63;;;15.50;99.90;;;;;;492320;241;28820;-70
2021/08/06 04:23:09;;;;;;;2.30;1.90;;;15.50;99.90;;;;;;492321;241;28792;-70
2021/08/06 04:25:10;;;;;;;2.30;2.10;;;15.50;99.90;;;;;;492326;241;28841;-70
2021/08/06 04:27:11;;;;;;;2.33;1.97;;;15.50;99.90;;;;;;492313;241;29326;-70
2021/08/06 04:29:12;;;;;;;1.77;1.60;;;15.50;99.90;;;;;;492327;241;29418;-70
2021/08/06 04:31:14;;;;;;;2.10;1.93;;;15.50;99.90;;;;;;492338;241;29357;-70
2021/08/06 04:33:15;;;;;;;2.27;2.07;;;15.50;99.90;;;;;;492352;238;29402;-70
2021/08/06 04:35:18;;;;;;;3.30;2.23;;;15.50;99.90;;;;;;492348;241;28805;-70
2021/08/06 04:37:17;;;;;;;4.07;1.90;;;15.60;99.90;;;;;;492230;241;28783;-71
2021/08/06 04:39:19;;;;;;;1.70;1.60;;;15.60;99.90;;;;;;492345;241;28897;-73
2021/08/06 04:41:20;;;;;;;2.23;2.10;;;15.60;99.90;;;;;;492327;241;28787;-72
2021/08/06 04:43:21;;;;;;;3.00;2.80;;;15.60;99.90;;;;;;492352;241;28856;-72
2021/08/06 04:45:22;;;;;;;3.90;3.00;;;15.60;99.90;;;;;;492330;241;28822;-72
2021/08/06 04:47:24;;;;;;;2.93;2.77;;;15.60;99.90;;;;;;492330;241;28770;-72
2021/08/06 04:49:25;;;;;;;2.87;2.77;;;15.60;99.90;;;;;;492285;241;28806;-72
2021/08/06 04:51:26;;;;;;;3.37;3.07;;;15.60;99.90;;;;;;492279;241;30197;-72
2021/08/06 04:53:27;;;;;;;3.10;2.90;;;15.60;99.90;;;;;;492298;241;29158;-72
2021/08/06 04:55:29;;;;;;;2.87;2.67;;;15.60;99.90;;;;;;492303;241;29397;-69
2021/08/06 04:57:31;;;;;;;3.03;2.83;;;;;;;;;;492310;238;29316;-72
2021/08/06 04:59:33;;;;;;;2.80;2.67;;;15.60;99.90;;;;;;492271;238;27530;-72
2021/08/06 05:01:35;;;;;;;2.83;2.63;;;;;;;;;;492231;241;27360;-72
2021/08/06 05:03:36;;;;;;;3.00;2.80;;;15.70;99.90;;;;;;492218;241;27444;-72
2021/08/06 05:05:38;;;;;;;2.50;2.40;;;;;;;;;;492203;241;28747;-73
2021/08/06 05:07:39;;;;;;;2.37;2.17;;;15.70;99.90;;;;;;492266;241;27527;-71
2021/08/06 05:09:41;;;;;;;2.40;2.20;;;15.70;99.90;;;;;;492256;241;29077;-70
2021/08/06 05:11:42;;;;;;;2.70;2.50;;;15.70;99.90;;;;;;492264;241;29430;-71
2021/08/06 05:13:43;;;;;;;4.17;2.80;;;15.70;99.90;;;;;;492259;241;28924;-69
2021/08/06 05:15:44;;;;;;;2.60;2.50;;;15.70;99.90;;;;;;492243;241;29239;-70
2021/08/06 05:17:46;;;;;;;5.03;2.63;;;15.80;99.90;;;;;;492292;241;29395;-69
2021/08/06 05:19:47;;;;;;;4.13;2.40;;;15.80;99.90;;;;;;492332;241;29298;-68
2021/08/06 05:21:48;;;;;;;2.33;2.23;;;15.80;99.90;;;;;;492323;241;28782;-69
2021/08/06 05:23:49;;;;;;;2.50;2.30;;;15.80;99.90;;;;;;492320;241;28873;-70
2021/08/06 05:25:51;;;;;;;2.50;2.40;;;15.90;99.90;;;;;;492307;241;28786;-70
2021/08/06 05:27:52;;;;;;;2.57;2.40;;;15.90;99.90;;;;;;492299;241;29177;-69
2021/08/06 05:29:53;;;;;;;2.70;2.50;;;15.90;99.90;;;;;;492370;241;28814;-68
2021/08/06 05:31:54;;;;;;;2.70;2.60;;;15.90;99.90;;;;;;492328;241;28797;-68
2021/08/06 05:33:56;;;;;;;3.03;2.80;;;15.90;99.90;;;;;;492332;241;28831;-69
2021/08/06 05:35:57;;;;;;;3.20;2.90;;;16.00;99.90;;;;;;492286;241;28877;-69
2021/08/06 05:37:58;;;;;;;2.93;2.73;;;16.00;99.90;;;;;;492300;241;28791;-72
2021/08/06 05:39:59;;;;;;;2.63;2.43;;;16.00;99.90;;;;;;492285;241;29313;-70
2021/08/06 05:42:01;;;;;;;3.00;2.70;;;16.00;99.90;;;;;;492319;241;29207;-70
2021/08/06 05:44:02;;;;;;;2.70;2.37;;;16.00;99.90;;;;;;492319;240;29720;-72
2021/08/06 05:46:03;;;;;;;3.90;2.67;;;16.10;99.90;;;;;;492334;241;29276;-72
2021/08/06 05:48:04;;;;;;;2.50;2.30;;;16.00;99.90;;;;;;492317;241;28695;-72
2021/08/06 05:50:06;;;;;;;2.60;2.40;;;16.10;99.90;;;;;;492319;241;28825;-72
2021/08/06 05:52:07;;;;;;;2.30;2.20;;;16.20;99.90;;;;;;492319;241;28880;-72
2021/08/06 05:54:08;;;;;;;2.50;2.30;;;16.20;99.90;;;;;;492293;240;28837;-72
2021/08/06 05:56:09;;;;;;;2.27;2.10;;;16.20;99.90;;;;;;492321;241;28762;-70
2021/08/06 05:58:11;;;;;;;2.53;2.43;;;16.20;99.90;;;;;;492299;241;28698;-69
2021/08/06 06:00:12;;;;;;;2.63;2.43;;;16.20;99.90;;;;;;492322;241;28833;-70
2021/08/06 06:02:13;;;;;;;2.37;2.20;;;16.20;99.90;;;;;;492314;241;28840;-71
2021/08/06 06:04:14;;;;;;;4.23;2.30;;;16.30;99.90;;;;;;492323;241;29285;-72
2021/08/06 06:06:16;;;;;;;2.77;2.57;;;16.30;99.90;;;;;;492348;241;29215;-72
2021/08/06 06:08:17;;;;;;;2.50;2.20;;;16.30;99.90;;;;;;492327;241;29197;-71
2021/08/06 06:10:18;;;;;;;3.50;2.70;;;16.20;99.90;;;;;;492333;241;28853;-72
2021/08/06 06:12:19;;;;;;;3.30;2.10;;;16.20;99.90;;;;;;492348;241;28779;-69
2021/08/06 06:14:21;;;;;;;4.90;3.00;;;16.30;99.90;;;;;;492315;241;28921;-72
2021/08/06 06:16:22;;;;;;;3.13;2.87;;;16.30;99.90;;;;;;492303;241;29155;-72
2021/08/06 06:18:23;;;;;;;4.33;2.87;;;16.20;99.90;;;;;;492227;241;28913;-69
2021/08/06 06:20:24;;;;;;;3.03;2.83;;;16.20;99.90;;;;;;492297;240;28827;-73
2021/08/06 06:22:26;;;;;;;3.10;2.90;;;16.00;99.90;;;;;;492358;241;28787;-72
2021/08/06 06:24:27;;;;;;;3.27;2.80;;;16.00;99.90;;;;;;492299;241;28817;-72
2021/08/06 06:26:28;;;;;;;5.80;2.80;;;16.00;99.90;;;;;;492313;241;28855;-72
2021/08/06 06:28:29;;;;;;;3.33;3.03;;;16.10;99.90;;;;;;492284;241;29316;-69
2021/08/06 06:30:31;;;;;;;3.00;2.50;;;16.10;99.90;;;;;;492312;241;29198;-70
2021/08/06 06:32:32;;;;;;;2.77;2.57;;;16.10;99.90;;;;;;492298;241;29983;-72
2021/08/06 06:34:33;;;;;;;3.30;3.00;;;16.20;99.90;;;;;;492325;237;29341;-71
2021/08/06 06:36:34;;;;;;;4.27;2.90;;;16.20;99.90;;;;;;492303;241;28762;-71
2021/08/06 06:38:36;;;;;;;4.00;2.67;;;16.10;99.90;;;;;;492232;241;28818;-71
2021/08/06 06:40:37;;;;;;;2.77;2.57;;;16.10;99.90;;;;;;492280;241;28813;-71
2021/08/06 06:42:38;;;;;;;3.40;2.80;;;16.20;99.90;;;;;;492260;241;28672;-71
2021/08/06 06:44:39;;;;;;;3.40;2.93;;;16.10;99.90;;;;;;492274;241;28799;-72
2021/08/06 06:46:41;;;;;;;2.60;2.40;;;16.10;99.90;;;;;;492314;241;28871;-71
2021/08/06 06:48:42;;;;;;;3.00;2.60;;;16.10;99.90;;;;;;492272;241;29119;-71
2021/08/06 06:50:43;;;;;;;2.70;2.50;;;16.10;99.90;;;;;;492296;241;28845;-72
2021/08/06 06:52:44;;;;;;;3.07;2.57;;;16.10;99.90;;;;;;492312;241;29250;-72
2021/08/06 06:54:46;;;;;;;3.17;2.80;;;16.30;99.90;;;;;;492074;241;29381;-71
2021/08/06 06:56:47;;;;;;;2.73;2.57;;;16.40;99.90;;;;;;492331;241;29323;-72
2021/08/06 06:58:48;;;;;;;3.97;2.40;;;16.40;99.90;;;;;;492285;241;29174;-71
2021/08/06 07:00:50;;;;;;;2.60;2.40;;;16.60;99.90;;;;;;492309;241;28710;-71
2021/08/06 07:02:51;;;;;;;2.50;2.30;;;16.80;99.90;;;;;;492306;241;28775;-71
2021/08/06 07:04:52;;;;;;;2.67;2.33;;;16.90;99.90;;;;;;492289;241;28916;-72
2021/08/06 07:06:53;;;;;;;2.73;2.53;;;17.00;99.90;;;;;;492317;241;28791;-72
2021/08/06 07:08:54;;;;;;;4.60;2.57;;;16.90;99.90;;;;;;492262;241;28805;-71
2021/08/06 07:10:56;;;;;;;3.60;2.40;;;16.90;99.90;;;;;;492311;241;28826;-72
2021/08/06 07:12:57;;;;;;;3.07;2.43;;;16.80;99.90;;;;;;492295;241;28675;-72
2021/08/06 07:15:00;;;;;;;3.43;2.80;;;16.70;99.90;;;;;;492308;241;28813;-72
2021/08/06 07:16:59;;;;;;;3.03;2.73;;;16.70;99.90;;;;;;492218;241;29228;-69
2021/08/06 07:19:01;;;;;;;5.40;2.60;;;16.70;99.90;;;;;;492348;241;29283;-72
2021/08/06 07:21:02;;;;;;;2.17;2.07;;;16.60;99.90;;;;;;492349;241;29367;-70
2021/08/06 07:23:03;;;;;;;5.50;3.13;;;16.60;99.90;;;;;;492345;241;28864;-70
2021/08/06 07:25:04;;;;;;;2.80;2.70;;;16.60;99.90;;;;;;492366;241;28870;-69
2021/08/06 07:27:06;;;;;;;2.80;2.60;;;16.50;99.90;;;;;;492364;241;28776;-69
2021/08/06 07:29:07;;;;;;;2.67;2.47;;;16.50;99.90;;;;;;492331;241;28791;-72
2021/08/06 07:31:08;;;;;;;3.30;2.77;;;16.50;99.90;;;;;;492358;241;28874;-72
2021/08/06 07:33:09;;;;;;;2.30;2.10;;;16.60;99.90;;;;;;492341;241;28810;-71
2021/08/06 07:35:11;;;;;;;3.33;2.70;;;16.60;99.90;;;;;;492341;241;28819;-72
2021/08/06 07:37:12;;;;;;;3.67;3.17;;;16.60;99.90;;;;;;492293;241;29148;-72
2021/08/06 07:39:13;;;;;;;2.40;2.30;;;16.60;99.90;;;;;;492323;241;28819;-71
2021/08/06 07:41:15;;;;;;;2.87;2.63;;;16.60;99.90;;;;;;492336;241;29279;-70
2021/08/06 07:43:16;;;;;;;3.20;2.50;;;16.70;99.90;;;;;;492326;241;29229;-72
2021/08/06 07:45:17;;;;;;;2.90;2.60;;;16.70;99.90;;;;;;492322;241;29289;-72
2021/08/06 07:47:18;;;;;;;2.77;2.57;;;16.80;99.90;;;;;;492352;241;29337;-70
2021/08/06 07:49:20;;;;;;;2.63;2.43;;;16.70;99.90;;;;;;492319;241;28690;-70
2021/08/06 07:51:21;;;;;;;2.90;2.63;;;16.80;99.90;;;;;;492301;241;28808;-70
2021/08/06 07:53:22;;;;;;;2.57;2.40;;;16.80;99.90;;;;;;492321;241;29150;-71
2021/08/06 07:55:23;;;;;;;3.10;2.50;;;16.70;99.90;;;;;;492321;241;28892;-70
2021/08/06 07:57:25;;;;;;;2.50;2.30;;;16.90;99.90;;;;;;492313;241;28881;-69
2021/08/06 07:59:26;;;;;;;2.57;2.37;;;17.00;99.90;;;;;;492317;241;28809;-69
2021/08/06 08:01:27;;;;;;;3.60;2.63;;;17.10;99.90;;;;;;492338;241;28888;-70
2021/08/06 08:03:28;;;;;;;3.27;2.80;;;17.20;99.90;;;;;;492338;241;28783;-70
2021/08/06 08:05:30;;;;;;;2.60;2.40;;;17.20;99.90;;;;;;492330;241;29307;-69
2021/08/06 08:07:31;;;;;;;2.90;2.70;;;17.10;99.90;;;;;;492330;241;29320;-69
2021/08/06 08:09:32;;;;;;;5.83;2.90;;;17.10;99.90;;;;;;492323;241;29996;-70
2021/08/06 08:11:33;;;;;;;2.60;2.20;;;17.00;99.90;;;;;;492305;241;29326;-72
2021/08/06 08:13:35;;;;;;;2.40;2.20;;;17.00;99.90;;;;;;492335;241;28795;-70
2021/08/06 08:15:38;;;;;;;2.70;2.47;;;16.90;99.90;;;;;;492334;241;28817;-70
2021/08/06 08:17:37;;;;;;;3.57;2.53;;;16.80;99.90;;;;;;492195;241;28864;-70
2021/08/06 08:19:38;;;;;;;2.80;2.40;;;16.70;99.90;;;;;;492300;240;28744;-69
2021/08/06 08:21:40;;;;;;;3.60;2.60;;;16.60;99.90;;;;;;492216;241;28849;-70
2021/08/06 08:23:41;;;;;;;3.60;2.67;;;16.50;99.90;;;;;;492317;241;28776;-70
2021/08/06 08:25:42;;;;;;;6.27;2.40;;;16.50;99.90;;;;;;492325;241;29180;-70
2021/08/06 08:27:43;;;;;;;2.63;2.43;;;16.50;99.90;;;;;;492310;241;28782;-70
2021/08/06 08:29:48;;;;;;;2.10;1.97;;;16.40;99.90;;;;;;492297;241;29376;-70
2021/08/06 08:31:46;;;;;;;2.43;2.27;;;16.40;99.90;;;;;;491967;241;29303;-71
2021/08/06 08:33:47;;;;;;;2.20;1.87;;;16.40;99.90;;;;;;492308;241;29241;-69
2021/08/06 08:35:49;;;;;;;2.53;2.33;;;;;;;;;;492318;241;29288;-71
2021/08/06 08:37:50;;;;;;;3.30;2.60;;;16.60;99.90;;;;;;492345;241;27609;-72
2021/08/06 08:39:52;;;;;;;2.90;2.43;;;16.60;99.90;;;;;;492319;241;28875;-72
2021/08/06 08:41:54;;;;;;;2.30;2.10;;;16.70;99.90;;;;;;492317;241;28802;-70
2021/08/06 08:43:54;;;;;;;2.43;2.23;;;16.70;99.90;;;;;;492247;241;28726;-69
2021/08/06 08:45:55;;;;;;;3.40;2.47;;;16.70;99.90;;;;;;492313;241;28768;-72
2021/08/06 08:47:57;;;;;;;2.83;2.63;;;16.80;99.90;;;;;;492336;241;28902;-69
2021/08/06 08:49:58;;;;;;;2.37;2.10;;;16.90;99.90;;;;;;492290;240;28702;-69
2021/08/06 08:51:59;;;;;;;3.40;2.07;;;17.00;99.90;;;;;;492321;241;28793;-70
2021/08/06 08:54:01;;;;;;;2.20;2.10;;;17.20;99.90;;;;;;492330;241;28811;-70
2021/08/06 08:56:02;;;;;;;2.10;2.00;;;17.20;99.90;;;;;;492328;241;29229;-69
2021/08/06 08:58:03;;;;;;;2.53;2.10;;;17.10;99.90;;;;;;492338;241;29297;-70
2021/08/06 09:00:04;;;;;;;2.03;1.93;;;16.90;99.90;;;;;;492324;241;29375;-72
2021/08/06 09:02:05;;;;;;;3.20;2.50;;;16.80;99.90;;;;;;492352;241;29253;-72
2021/08/06 09:04:07;;;;;;;2.27;2.00;;;16.80;99.90;;;;;;492330;241;28819;-70
2021/08/06 09:06:08;;;;;;;2.27;2.07;;;17.10;99.90;;;;;;492348;241;28768;-70
2021/08/06 09:08:09;;;;;;;2.43;2.00;;;17.50;99.90;;;;;;492306;241;28817;-70
2021/08/06 09:10:10;;;;;;;2.33;2.17;;;17.40;99.90;;;;;;492337;241;29164;-70
2021/08/06 09:12:12;;;;;;;2.43;2.23;;;17.30;99.90;;;;;;492294;241;28785;-71
2021/08/06 09:14:13;;;;;;;2.10;2.00;;;17.30;99.90;;;;;;492311;241;28713;-71
2021/08/06 09:16:14;;;;;;;2.90;2.30;;;17.20;99.90;;;;;;492316;241;28781;-70
2021/08/06 09:18:15;;;;;;;2.50;1.90;;;17.60;99.90;;;;;;492307;241;28711;-70
2021/08/06 09:20:21;;;;;;;2.47;2.27;;;17.70;99.90;;;;;;492311;241;29299;-70
2021/08/06 09:22:19;;;;;;;2.00;1.90;;;17.60;99.90;;;;;;492054;241;29355;-71
2021/08/06 09:24:19;;;;;;;2.07;1.97;;;17.60;99.90;;;;;;492253;241;29272;-71
2021/08/06 09:26:20;;;;;;;2.20;2.10;;;17.90;99.90;;;;;;492324;241;29215;-71
2021/08/06 09:28:22;;;;;;;3.10;2.33;;;18.20;99.90;;;;;;492320;241;28885;-71
2021/08/06 09:30:23;;;;;;;6.10;2.50;;;18.30;99.90;;;;;;492346;241;28823;-71
2021/08/06 09:32:24;;;;;;;3.00;2.10;;;18.30;99.90;;;;;;492318;241;28872;-71
2021/08/06 09:34:25;;;;;;;2.00;1.90;;;18.20;99.90;;;;;;492302;241;28803;-71
2021/08/06 09:36:27;;;;;;;2.13;2.00;;;18.20;99.90;;;;;;492309;241;28828;-70
2021/08/06 09:38:28;;;;;;;2.23;2.13;;;18.20;99.90;;;;;;492296;241;28750;-72
2021/08/06 09:40:29;;;;;;;2.67;2.00;;;18.20;99.90;;;;;;492328;241;29158;-73
2021/08/06 09:42:32;;;;;;;2.63;2.43;;;18.10;99.90;;;;;;492308;241;28769;-71
2021/08/06 09:44:32;;;;;;;2.53;2.20;;;17.90;99.90;;;;;;492234;241;29353;-71
2021/08/06 09:46:33;;;;;;;2.50;2.30;;;17.80;99.90;;;;;;492326;241;29290;-72
2021/08/06 09:48:34;;;;;;;2.73;1.90;;;17.70;99.90;;;;;;492299;241;29273;-72
2021/08/06 09:50:35;;;;;;;2.50;2.40;;;17.50;99.90;;;;;;492313;241;29402;-73
2021/08/06 09:52:37;;;;;;;2.40;2.20;;;17.40;99.90;;;;;;492287;240;28781;-72
2021/08/06 09:54:38;;;;;;;2.70;1.90;;;17.40;99.90;;;;;;492311;241;28918;-72
2021/08/06 09:56:39;;;;;;;1.90;1.80;;;17.70;99.90;;;;;;492313;241;28664;-73
2021/08/06 09:58:40;;;;;;;2.40;2.20;;;17.70;99.90;;;;;;492313;241;28821;-72
2021/08/06 10:00:42;;;;;;;2.37;1.90;;;17.90;99.90;;;;;;492307;241;28892;-71
2021/08/06 10:02:43;;;;;;;2.53;1.83;;;18.10;99.90;;;;;;492346;241;28823;-71
2021/08/06 10:04:44;;;;;;;2.10;1.90;;;18.20;99.90;;;;;;492283;241;28827;-71
2021/08/06 10:06:45;;;;;;;2.33;1.93;;;18.20;99.90;;;;;;492323;241;28678;-71
2021/08/06 10:08:47;;;;;;;1.80;1.70;;;18.30;99.90;;;;;;492298;241;29324;-72
2021/08/06 10:10:53;;;;;;;2.30;2.03;;;18.40;99.90;;;;;;492302;241;29312;-72
2021/08/06 10:12:49;;;;;;;5.60;1.70;;;18.30;99.90;;;;;;492012;241;29319;-72
2021/08/06 10:14:50;;;;;;;2.07;1.97;;;18.30;99.90;;;;;;492313;237;29275;-71
2021/08/06 10:16:52;;;;;;;2.40;1.87;;;18.10;99.90;;;;;;492325;241;28765;-71
2021/08/06 10:18:53;;;;;;;2.10;2.00;;;18.10;99.90;;;;;;492286;241;28730;-72
2021/08/06 10:20:54;;;;;;;2.70;2.03;;;18.00;99.90;;;;;;492297;241;28809;-71
2021/08/06 10:22:55;;;;;;;1.83;1.73;;;18.00;99.90;;;;;;492322;241;28868;-71
2021/08/06 10:24:57;;;;;;;2.00;1.60;;;18.00;99.90;;;;;;492344;241;28859;-71
2021/08/06 10:26:59;;;;;;;2.50;1.90;;;18.10;99.90;;;;;;492333;241;28789;-71
2021/08/06 10:28:59;;;;;;;2.80;1.80;;;18.30;99.90;;;;;;492297;241;28716;-71
2021/08/06 10:31:00;;;;;;;1.50;1.40;;;18.40;99.90;;;;;;492338;241;28888;-72
2021/08/06 10:33:02;;;;;;;2.37;1.53;;;18.40;99.90;;;;;;492332;241;29256;-72
2021/08/06 10:35:03;;;;;;;2.10;1.97;;;18.50;99.90;;;;;;492328;241;29301;-70